Terminal Aerodrome Forecast
Issued by NWS

Home | Current Version | Previous Version | Text Only | Print | Product List | Glossary On
Versions: 1 2 3 4 5 6 7 8 9 10 11 12 13 14 15 16 17 18 19 20 21 22 23 24 25 26 27 28 29 30 31 32 33
000
FTUS43 KLOT 241139
TAFMDW
TAF
KMDW 241139Z 2412/2512 32008KT P6SM OVC012
     FM241500 VRB03KT P6SM OVC015
     FM242100 11005KT P6SM OVC020
     FM250400 12009KT 6SM -RA BR OVC012
      TEMPO 2504/2508 3SM -RA OVC009
     FM250800 14012G20KT 3SM -RA OVC007
      TEMPO 2508/2512 1 1/2SM -RA OVC005=

USA.gov is the U.S. government's official web portal to all federal, state and local government web resources and services.